Time;durP1;ratioP1;P1;durP2;ratioP2;P2;SDS_P1;SDS_P2;PMS_P1;PMS_P2;Temp;Humidity;BMP_temperature;BMP_pressure;BME280_temperature;BME280_humidity;BME280_pressure;Samples;Min_cycle;Max_cycle;Signal;HPM_P1;HPM_P2
2022/05/01 13:00:36;;;;;;;0.20;0.10;;;24.60;99.90;;;;;;25639240;23;20198;-75
2022/05/01 13:10:40;;;;;;;0.20;0.00;;;25.80;99.90;;;;;;25606966;23;20182;-74
2022/05/01 13:20:45;;;;;;;0.20;0.00;;;26.70;99.90;;;;;;25658230;23;20177;-73
2022/05/01 13:30:49;;;;;;;0.20;0.00;;;26.00;99.90;;;;;;25656247;23;20182;-73
2022/05/01 13:51:17;;;;;;;0.20;0.10;;;25.90;99.90;;;;;;25651919;23;20209;-73
2022/05/01 14:01:22;;;;;;;0.20;0.00;;;26.10;99.90;;;;;;25624764;23;20201;-73
2022/05/01 14:11:27;;;;;;;0.20;0.00;;;26.90;99.90;;;;;;25651123;23;20218;-72
2022/05/01 14:21:40;;;;;;;0.20;0.00;;;27.30;99.90;;;;;;25650849;23;20166;-72
2022/05/01 14:32:15;;;;;;;0.20;0.10;;;27.20;99.90;;;;;;25650505;23;20205;-72
2022/05/01 14:42:28;;;;;;;0.20;0.00;;;28.60;99.90;;;;;;25651507;23;20173;-76
2022/05/01 14:52:32;;;;;;;0.20;0.00;;;26.50;99.90;;;;;;25623151;23;20212;-75
2022/05/01 15:13:03;;;;;;;0.20;0.17;;;26.90;99.90;;;;;;25623369;23;20181;-74
2022/05/01 15:23:14;;;;;;;0.20;0.00;;;26.90;99.90;;;;;;25624644;23;20185;-72
2022/05/01 15:43:43;;;;;;;0.20;0.10;;;25.10;99.90;;;;;;25623298;23;20166;-72
2022/05/01 15:53:47;;;;;;;0.20;0.00;;;23.50;99.90;;;;;;25624139;23;20202;-72
2022/05/01 16:03:53;;;;;;;0.20;0.00;;;22.50;99.90;;;;;;25626548;23;20213;-74
2022/05/01 16:14:02;;;;;;;0.20;0.00;;;22.20;99.90;;;;;;25626487;23;20198;-74
2022/05/01 16:24:11;;;;;;;0.20;0.00;;;22.00;99.90;;;;;;25628889;23;20189;-74
2022/05/01 16:34:24;;;;;;;0.20;0.00;;;21.60;99.90;;;;;;25627651;23;20193;-72
2022/05/01 16:44:31;;;;;;;0.20;0.00;;;21.50;99.90;;;;;;25651908;23;20213;-73
2022/05/01 16:54:37;;;;;;;0.20;0.10;;;20.80;99.90;;;;;;25650989;23;20190;-73
2022/05/01 17:04:45;;;;;;;0.20;0.10;;;20.80;99.90;;;;;;25650832;23;20209;-73
2022/05/01 17:15:02;;;;;;;0.20;0.10;;;21.30;99.90;;;;;;25622294;23;20177;-74
2022/05/01 17:25:11;;;;;;;0.20;0.10;;;20.90;99.90;;;;;;25646937;23;20206;-72
2022/05/01 17:35:16;;;;;;;0.20;0.00;;;20.50;99.90;;;;;;25622312;23;20265;-74
2022/05/01 17:45:21;;;;;;;0.20;0.10;;;20.20;99.90;;;;;;25623752;23;20186;-75
2022/05/01 17:55:27;;;;;;;0.20;0.10;;;19.60;99.90;;;;;;25622272;23;20201;-75
2022/05/01 18:16:13;;;;;;;0.20;0.10;;;19.30;99.90;;;;;;25646864;23;20165;-76
2022/05/01 18:26:27;;;;;;;0.20;0.00;;;19.10;99.90;;;;;;25625320;23;20213;-73
2022/05/01 18:36:34;;;;;;;0.20;0.10;;;19.20;99.90;;;;;;25647390;23;20165;-69
2022/05/01 18:46:41;;;;;;;0.20;0.10;;;19.30;99.90;;;;;;25626289;23;20189;-74
2022/05/01 18:56:50;;;;;;;0.20;0.10;;;19.30;99.90;;;;;;25626743;23;20285;-74
2022/05/01 19:07:03;;;;;;;0.20;0.10;;;19.30;99.90;;;;;;25650948;23;20183;-74
2022/05/01 19:17:15;;;;;;;0.20;0.00;;;19.00;99.90;;;;;;25649039;23;20257;-75
2022/05/01 19:27:27;;;;;;;0.20;0.10;;;19.00;99.90;;;;;;25656611;23;20181;-73
2022/05/01 19:37:37;;;;;;;0.20;0.00;;;18.60;99.90;;;;;;25657201;23;20175;-74
2022/05/01 19:58:08;;;;;;;0.20;0.00;;;18.80;99.90;;;;;;25595427;23;20260;-74
2022/05/01 20:08:14;;;;;;;0.20;0.10;;;18.70;99.90;;;;;;25657051;23;20213;-74
2022/05/01 20:18:34;;;;;;;0.20;0.00;;;18.30;99.90;;;;;;25658529;23;20224;-73
2022/05/01 20:29:03;;;;;;;0.20;0.10;;;18.00;99.90;;;;;;25632318;23;20190;-74
2022/05/01 20:39:13;;;;;;;0.20;0.00;;;17.70;99.90;;;;;;25629104;23;20166;-74
2022/05/01 20:49:29;;;;;;;0.20;0.00;;;17.70;99.90;;;;;;25631042;23;20190;-75
2022/05/01 20:59:33;;;;;;;0.20;0.10;;;17.70;99.90;;;;;;25658578;23;20202;-76
2022/05/01 21:09:46;;;;;;;0.20;0.10;;;17.60;99.90;;;;;;25657915;23;20193;-74
2022/05/01 21:19:50;;;;;;;0.20;0.10;;;17.60;99.90;;;;;;25654133;23;20162;-73
2022/05/01 21:40:17;;;;;;;0.20;0.00;;;17.50;99.90;;;;;;25654006;23;20559;-73
2022/05/01 21:50:23;;;;;;;0.20;0.10;;;17.10;99.90;;;;;;25655290;23;20193;-73
2022/05/01 22:00:26;;;;;;;0.20;0.10;;;16.80;99.90;;;;;;25651314;23;20213;-73
2022/05/01 22:10:32;;;;;;;0.20;0.00;;;16.80;99.90;;;;;;25652463;23;20185;-72
2022/05/01 22:20:36;;;;;;;0.20;0.10;;;16.50;99.90;;;;;;25625061;23;20181;-73
2022/05/01 22:30:41;;;;;;;0.20;0.10;;;16.80;99.90;;;;;;25626656;23;20609;-73
2022/05/01 22:40:45;;;;;;;0.20;0.10;;;16.70;99.90;;;;;;25647454;23;20189;-73
2022/05/01 22:50:50;;;;;;;0.20;0.10;;;16.70;99.90;;;;;;25626142;23;20465;-73
2022/05/01 23:00:54;;;;;;;0.20;0.10;;;16.80;99.90;;;;;;25626760;23;20280;-73
2022/05/01 23:10:59;;;;;;;0.20;0.10;;;17.00;99.90;;;;;;25660059;23;20217;-73
2022/05/01 23:21:03;;;;;;;0.20;0.00;;;16.90;99.90;;;;;;25657020;23;20197;-73
2022/05/01 23:31:08;;;;;;;0.20;0.00;;;16.70;99.90;;;;;;25633776;23;20194;-72
2022/05/01 23:41:12;;;;;;;0.20;0.20;;;16.80;99.90;;;;;;25628487;23;20234;-73
2022/05/01 23:51:17;;;;;;;0.20;0.10;;;16.90;99.90;;;;;;25633375;23;20205;-72
